모두
Warkworth Airport (Warkworth, New South Wales) YWKW 기상
There is no TAF data available at YWKW or any nearby airports.
There is no METAR data available at YWKW. Showing METAR data for YCNK (25 mi 동남).
최근 CES METAR 이력(YWKW에 대한 데이터 없음)
| Date | Time (AEST) | Flight Rules | Wind Dir. | Speed | Type | Height AGL (ft) | Visibility | Temp (°C) | Temp (°F) | Dew Point (°C) | Dew Point (°F) | Rel. Humid. | Pressure | Density Altitude | Remarks |
|---|---|---|---|---|---|---|---|---|---|---|---|---|---|---|---|
| 03-5월 | 14:00 | n/a | 360° | 4 kt | Missing | 27° | 80° | 12° | 53° | 39% | 1018 mb | 1,509 ft | |||
| 03-5월 | 13:00 | n/a | 350° | 6 kt | Missing | 26° | 78° | 12° | 53° | 42% | 1019 mb | 1,360 ft | |||
| 03-5월 | 12:00 | n/a | 10° | 5 kt | Missing | 24° | 75° | 12° | 53° | 47% | 1020 mb | 1,090 ft | |||
| 03-5월 | 11:00 | n/a | 60° | 4 kt | Missing | 23° | 73° | 14° | 57° | 57% | 1021 mb | 941 ft | |||
| 03-5월 | 10:00 | n/a | 50° | 3 kt | Missing | 22° | 71° | 14° | 57° | 60% | 1022 mb | 791 ft | |||
| 03-5월 | 09:00 | n/a | 100° | 1 kt | Missing | 20° | 68° | 15° | 59° | 73% | 1022 mb | 551 ft | |||
| 03-5월 | 08:00 | n/a | Calm | Missing | 16° | 60° | 16° | 60° | 100% | 1022 mb | 71 ft | ||||
| 03-5월 | 07:00 | n/a | Calm | Missing | 12° | 53° | 11° | 51° | 94% | 1022 mb | -409 ft | ||||
| 03-5월 | 06:00 | n/a | 240° | 2 kt | Missing | 12° | 53° | 11° | 51° | 94% | 1021 mb | -379 ft | |||
| 03-5월 | 05:00 | n/a | 170° | 3 kt | Missing | 14° | 57° | 13° | 55° | 94% | 1021 mb | -139 ft | |||
| 03-5월 | 04:00 | n/a | 210° | 4 kt | Missing | 16° | 60° | 14° | 57° | 88% | 1021 mb | 101 ft | |||
| 03-5월 | 03:00 | n/a | 210° | 3 kt | Missing | 16° | 60° | 14° | 57° | 88% | 1021 mb | 101 ft | |||
| 03-5월 | 02:00 | n/a | 200° | 5 kt | Missing | 16° | 60° | 14° | 57° | 88% | 1022 mb | 71 ft | |||
| 03-5월 | 01:00 | n/a | 190° | 3 kt | Missing | 16° | 60° | 14° | 57° | 88% | 1022 mb | 71 ft | |||
| 03-5월 | 00:00 | n/a | 250° | 3 kt | Missing | 16° | 60° | 14° | 57° | 88% | 1022 mb | 71 ft | |||
| 02-5월 | 23:00 | n/a | 110° | 6 kt | Missing | 17° | 62° | 15° | 59° | 88% | 1022 mb | 191 ft | |||
| 02-5월 | 22:00 | n/a | 200° | 3 kt | Missing | 17° | 62° | 14° | 57° | 82% | 1023 mb | 162 ft | |||
| 02-5월 | 21:00 | n/a | 120° | 5 kt | Missing | 19° | 66° | 14° | 57° | 73% | 1023 mb | 402 ft | |||
| 02-5월 | 20:00 | n/a | 90° | 8 kt | Missing | 20° | 68° | 14° | 57° | 68% | 1023 mb | 522 ft | |||
| 02-5월 | 19:00 | n/a | 90° | 8 kt | Missing | 20° | 68° | 14° | 57° | 68% | 1022 mb | 551 ft | |||
| 02-5월 | 18:00 | n/a | 100° | 8 kt | Missing | 21° | 69° | 14° | 57° | 64% | 1022 mb | 671 ft | |||
| 02-5월 | 17:00 | n/a | 100° | 9 kt | Missing | 23° | 73° | 14° | 57° | 57% | 1021 mb | 941 ft | |||
| 02-5월 | 16:00 | n/a | 100° | 9 kt | Missing | 24° | 75° | 13° | 55° | 50% | 1021 mb | 1,061 ft | |||
| 02-5월 | 15:00 | n/a | 90° | 9 kt | Missing | 25° | 77° | 14° | 57° | 50% | 1021 mb | 1,181 ft |
로그인
| 귀하의 브라우저는 지원되지 않습니다.. 브라우저를 업그레이드하세요 |
